createdAt,value
2022-11-05T00:03:19.397Z,99997.09
2022-11-05T00:08:43.921Z,100003.22
2022-11-05T00:14:07.020Z,100000.75
2022-11-05T00:19:13.737Z,100009.44
2022-11-05T00:24:38.533Z,100000.00
2022-11-05T00:29:44.572Z,99993.13
2022-11-05T00:34:51.990Z,99994.88
2022-11-05T00:39:59.595Z,99987.09
2022-11-05T00:45:07.076Z,99988.84
2022-11-05T00:50:17.761Z,99995.00
2022-11-05T00:55:26.674Z,99984.69
2022-11-05T01:00:34.280Z,99985.53
2022-11-05T01:05:46.232Z,99980.34
2022-11-05T01:10:56.815Z,99980.34
2022-11-05T01:16:09.065Z,99984.78
2022-11-05T01:21:19.451Z,99986.47
2022-11-05T01:26:52.998Z,99988.13
2022-11-05T01:31:59.888Z,100004.75
2022-11-05T01:37:06.004Z,100001.28
2022-11-05T01:42:23.612Z,100003.97
2022-11-05T01:47:56.629Z,100014.41
2022-11-05T01:53:17.512Z,100009.28
2022-11-05T01:58:29.547Z,100017.09
2022-11-05T02:03:36.236Z,100014.59
2022-11-05T02:08:56.747Z,100012.94
2022-11-05T02:14:05.120Z,100010.41
2022-11-05T02:19:55.508Z,100018.22
2022-11-05T02:25:29.365Z,100014.72
2022-11-05T02:30:48.066Z,100006.97
2022-11-05T02:36:17.427Z,100010.56
2022-11-05T02:41:31.935Z,100026.09
2022-11-05T02:46:51.372Z,100032.09
2022-11-05T02:52:01.096Z,100040.75
2022-11-05T02:57:07.775Z,100034.91
2022-11-05T03:02:15.843Z,100044.47
2022-11-05T03:07:43.503Z,100039.31
2022-11-05T03:14:02.959Z,100051.41
2022-11-05T03:19:19.095Z,100058.31
2022-11-05T03:24:29.744Z,100060.09
2022-11-05T03:29:39.948Z,100064.53
2022-11-05T03:34:51.999Z,100068.84
2022-11-05T03:40:02.470Z,100066.28
2022-11-05T03:45:17.195Z,100066.34
2022-11-05T03:50:38.488Z,100067.25
2022-11-05T03:55:54.211Z,100070.69
2022-11-05T04:01:03.505Z,100084.63
2022-11-05T04:06:30.074Z,100094.03
2022-11-05T04:11:54.958Z,100087.16
2022-11-05T04:17:10.198Z,100102.81
2022-11-05T04:22:35.352Z,100098.53
2022-11-05T04:27:41.492Z,100106.38
2022-11-05T04:33:06.744Z,100105.53
2022-11-05T04:38:18.652Z,100109.94
2022-11-05T04:43:24.819Z,100123.72
2022-11-05T04:48:30.976Z,100127.19
2022-11-05T04:53:38.785Z,100140.19
2022-11-05T04:58:45.610Z,100141.06
2022-11-05T05:03:53.005Z,100141.94
2022-11-05T05:09:00.555Z,100133.31
2022-11-05T05:14:06.596Z,100145.47
2022-11-05T05:19:12.901Z,100164.44
2022-11-05T05:24:25.206Z,100171.38
2022-11-05T05:29:31.309Z,100171.44
2022-11-05T05:34:38.745Z,100174.88
2022-11-05T05:39:48.138Z,100176.59
2022-11-05T05:44:54.187Z,100184.44
2022-11-05T05:50:00.469Z,100191.44
2022-11-05T05:55:10.062Z,100203.50
2022-11-05T06:00:17.115Z,100207.00
2022-11-05T06:05:23.164Z,100198.34
2022-11-05T06:10:30.612Z,100201.00
2022-11-05T06:15:37.179Z,100198.47
2022-11-05T06:20:43.365Z,100213.09
2022-11-05T06:25:51.033Z,100217.38
2022-11-05T06:30:57.270Z,100239.06
2022-11-05T06:36:04.944Z,100233.84
2022-11-05T06:41:12.912Z,100240.78
2022-11-05T06:46:18.987Z,100231.25
2022-11-05T06:51:25.829Z,100245.97
2022-11-05T06:56:33.528Z,100252.81
2022-11-05T07:01:39.852Z,100253.63
2022-11-05T07:06:46.171Z,100257.00
2022-11-05T07:11:53.603Z,100248.31
2022-11-05T07:16:59.792Z,100251.66
2022-11-05T07:22:06.891Z,100256.81
2022-11-05T07:27:14.889Z,100273.97
2022-11-05T07:32:21.249Z,100271.34
2022-11-05T07:37:27.546Z,100266.13
2022-11-05T07:42:36.956Z,100276.44
2022-11-05T07:47:49.123Z,100292.91
2022-11-05T07:52:55.561Z,100306.75
2022-11-05T07:58:03.184Z,100308.47
2022-11-05T08:03:14.249Z,100324.81
2022-11-05T08:08:21.952Z,100322.16
2022-11-05T08:13:29.679Z,100322.09
2022-11-05T08:18:36.273Z,100320.28
2022-11-05T08:23:43.324Z,100322.81
2022-11-05T08:28:50.894Z,100336.59
2022-11-05T08:34:01.363Z,100329.59
2022-11-05T08:39:14.288Z,100322.63
2022-11-05T08:44:24.472Z,100325.16
2022-11-05T08:49:30.746Z,100331.16
2022-11-05T08:54:37.190Z,100338.78
2022-11-05T08:59:44.600Z,100341.25
2022-11-05T09:04:52.013Z,100342.97
2022-11-05T09:09:58.298Z,100369.84
2022-11-05T09:15:06.797Z,100364.56
2022-11-05T09:20:13.990Z,100367.16
2022-11-05T09:25:20.183Z,100380.13
2022-11-05T09:30:27.589Z,100366.19
2022-11-05T09:35:33.895Z,100385.22
2022-11-05T09:40:44.334Z,100388.63
2022-11-05T09:45:57.478Z,100393.81
2022-11-05T09:51:05.603Z,100398.13
2022-11-05T09:56:25.462Z,100412.84
2022-11-05T10:01:37.104Z,100422.41
2022-11-05T10:06:59.179Z,100431.16
2022-11-05T10:12:13.419Z,100432.00
2022-11-05T10:17:27.222Z,100441.50
2022-11-05T10:22:33.170Z,100452.78
2022-11-05T10:27:40.274Z,100444.97
2022-11-05T10:32:49.916Z,100450.16
2022-11-05T10:37:55.957Z,100463.28
2022-11-05T10:43:08.401Z,100471.94
2022-11-05T10:48:45.156Z,100459.75
2022-11-05T10:54:01.700Z,100464.97
2022-11-05T10:59:22.199Z,100464.91
2022-11-05T11:04:37.448Z,100461.44
2022-11-05T11:09:51.246Z,100485.69
2022-11-05T11:15:03.887Z,100480.47
2022-11-05T11:20:29.338Z,100495.16
2022-11-05T11:25:47.669Z,100491.66
2022-11-05T11:31:04.004Z,100498.53
2022-11-05T11:36:14.713Z,100501.97
2022-11-05T11:41:30.664Z,100505.44
2022-11-05T11:56:10.809Z,100508.03
2022-11-05T12:02:08.052Z,100515.81
2022-11-05T12:07:33.994Z,100517.56
2022-11-05T12:12:51.150Z,100509.72
2022-11-05T12:18:05.157Z,100512.28
2022-11-05T12:23:32.347Z,100525.31
2022-11-05T12:29:18.367Z,100528.78
2022-11-05T12:34:44.316Z,100536.53
2022-11-05T12:40:15.825Z,100533.88
2022-11-05T12:45:40.807Z,100532.16
2022-11-05T12:50:54.495Z,100509.56
2022-11-05T12:56:11.282Z,100536.47
2022-11-05T13:01:25.091Z,100542.53
2022-11-05T13:06:43.012Z,100552.09
2022-11-05T13:11:55.141Z,100551.16
2022-11-05T13:17:09.719Z,100559.88
2022-11-05T13:28:40.750Z,100560.66
2022-11-05T13:33:50.522Z,100558.09
2022-11-05T13:39:07.417Z,100574.59
2022-11-05T13:44:43.998Z,100590.19
2022-11-05T13:50:25.517Z,100595.41
2022-11-05T13:55:58.906Z,100598.06
2022-11-05T14:01:18.847Z,100607.66
2022-11-05T14:06:29.462Z,100612.81
2022-11-05T14:11:39.465Z,100609.38
2022-11-05T14:16:54.361Z,100633.78
2022-11-05T14:22:01.759Z,100637.25
2022-11-05T14:27:52.558Z,100637.25
2022-11-05T14:33:15.740Z,100654.59
2022-11-05T14:38:26.450Z,100660.72
2022-11-05T14:43:36.615Z,100672.00
2022-11-05T14:48:50.147Z,100669.44
2022-11-05T14:54:06.124Z,100673.75
2022-11-05T14:59:37.026Z,100675.50
2022-11-05T15:04:48.208Z,100675.50
2022-11-05T15:10:07.142Z,100671.19
2022-11-05T15:15:24.671Z,100686.00
2022-11-05T15:20:40.701Z,100684.28
2022-11-05T15:25:53.832Z,100696.47
2022-11-05T15:31:04.465Z,100710.41
2022-11-05T15:36:30.108Z,100699.13
2022-11-05T15:41:38.674Z,100707.75
2022-11-05T15:46:46.998Z,100722.56
2022-11-05T15:51:55.910Z,100720.84
2022-11-05T15:57:03.074Z,100718.25
2022-11-05T16:02:33.754Z,100731.31
2022-11-05T16:07:44.541Z,100738.28
2022-11-05T16:12:59.626Z,100744.41
2022-11-05T16:18:24.627Z,100743.53
2022-11-05T16:23:47.194Z,100753.13
2022-11-05T16:28:55.076Z,100772.25
2022-11-05T16:34:02.711Z,100772.25
2022-11-05T16:39:12.185Z,100781.81
2022-11-05T16:44:20.361Z,100792.25
2022-11-05T16:49:28.109Z,100799.25
2022-11-05T16:54:36.674Z,100808.00
2022-11-05T16:59:45.472Z,100814.06
2022-11-05T17:04:54.303Z,100817.56
2022-11-05T17:10:03.665Z,100824.56
2022-11-05T17:15:21.467Z,100828.94
2022-11-05T17:20:40.764Z,100835.91
2022-11-05T17:25:53.173Z,100835.00
2022-11-05T17:31:02.609Z,100850.66
2022-11-05T17:36:15.683Z,100856.78
2022-11-05T17:41:26.628Z,100856.84
2022-11-05T17:46:34.357Z,100863.81
2022-11-05T17:51:41.709Z,100866.41
2022-11-05T17:56:50.305Z,100876.03
2022-11-05T18:01:58.862Z,100878.69
2022-11-05T18:07:09.698Z,100877.81
2022-11-05T18:12:19.223Z,100889.97
2022-11-05T18:17:26.200Z,100890.84
2022-11-05T18:22:37.311Z,100900.44
2022-11-05T18:27:47.338Z,100897.78
2022-11-05T18:32:56.211Z,100892.66
2022-11-05T18:38:06.239Z,100905.69
2022-11-05T18:43:17.320Z,100910.91
2022-11-05T18:48:25.212Z,100912.66
2022-11-05T18:53:33.874Z,100896.19
2022-11-05T18:58:45.356Z,100903.13
2022-11-05T19:03:58.213Z,100914.41
2022-11-05T19:09:12.777Z,100918.78
2022-11-05T19:14:34.438Z,100917.91
2022-11-05T19:19:42.214Z,100913.59
2022-11-05T19:24:52.540Z,100915.34
2022-11-05T19:30:02.450Z,100918.78
2022-11-05T19:35:11.785Z,100912.72
2022-11-05T19:40:20.133Z,100919.72
2022-11-05T19:45:44.209Z,100936.22
2022-11-05T19:50:52.308Z,100944.03
2022-11-05T19:56:00.657Z,100949.25
2022-11-05T20:01:11.783Z,100951.00
2022-11-05T20:06:24.923Z,100964.06
2022-11-05T20:11:32.861Z,100961.44
2022-11-05T20:16:42.513Z,100975.38
2022-11-05T20:21:51.622Z,100975.38
2022-11-05T20:26:59.891Z,100986.66
2022-11-05T20:32:09.580Z,100984.94
2022-11-05T20:37:16.871Z,100993.69
2022-11-05T20:42:25.180Z,100991.97
2022-11-05T20:47:35.831Z,100993.69
2022-11-05T20:52:44.422Z,100997.19
2022-11-05T20:57:51.354Z,101000.63
2022-11-05T21:03:01.678Z,101000.63
2022-11-05T21:08:09.986Z,101011.09
2022-11-05T21:13:18.468Z,101005.91
2022-11-05T21:18:33.836Z,101004.22
2022-11-05T21:23:42.983Z,101005.09
2022-11-05T21:28:52.614Z,101009.44
2022-11-05T21:34:01.071Z,101005.13
2022-11-05T21:39:13.207Z,101006.91
2022-11-05T21:44:20.912Z,101011.28
2022-11-05T21:49:29.628Z,101013.00
2022-11-05T21:54:54.067Z,101007.88
2022-11-05T22:00:01.852Z,101020.88
2022-11-05T22:05:15.322Z,101030.44
2022-11-05T22:10:22.770Z,101026.16
2022-11-05T22:15:30.169Z,101033.13
2022-11-05T22:20:40.518Z,101031.44
2022-11-05T22:25:47.324Z,101039.28
2022-11-05T22:30:54.035Z,101053.22
2022-11-05T22:36:02.045Z,101056.69
2022-11-05T22:41:13.309Z,101051.53
2022-11-05T22:46:22.819Z,101057.63
2022-11-05T22:51:33.412Z,101058.53
2022-11-05T22:56:43.189Z,101049.06
2022-11-05T23:01:50.000Z,101051.78
2022-11-05T23:07:15.509Z,101057.09
2022-11-05T23:12:27.410Z,101060.75
2022-11-05T23:17:51.399Z,101065.81
2022-11-05T23:23:17.550Z,101062.34
2022-11-05T23:28:24.343Z,101065.22
2022-11-05T23:33:34.828Z,101060.72
2022-11-05T23:38:42.742Z,101061.59
2022-11-05T23:44:08.641Z,101058.09
2022-11-05T23:49:15.160Z,101069.38
2022-11-05T23:54:23.555Z,101077.38
2022-11-05T23:59:29.828Z,101082.50
